KCAR/CAR METAR and TAF weather

Enter ICAO airport designator
Station Type Date Time Source
KCAR METAR 2021/05/14 12:54 UTC NOAA

KCAR 141254Z AUTO 31006KT 10SM CLR 12/M01 A3005 RMK AO2 SLP181 T01221006


Station Type Date Time Source
KCAR Decoded METAR 2021/05/14 12:54 UTC NOAA

CARIBOU MUNICIPAL AIRPORT, ME, United States (KCAR) 46-52N 68-01W 191M
May 14, 2021 - 08:54 AM EDT / 2021.05.14 1254 UTC
Wind: from the NW (310 degrees) at 7 MPH (6 KT):0
Visibility: 10 mile(s):0
Sky conditions: clear
Temperature: 54.0 F (12.2 C)
Dew Point: 30.9 F (-0.6 C)
Relative Humidity: 41%
Pressure (altimeter): 30.05 in. Hg (1017 hPa)
ob: KCAR 141254Z AUTO 31006KT 10SM CLR 12/M01 A3005 RMK AO2 SLP181 T01221006
cycle: 13

Station Type Date Time Source
KCAR TAF 2021/05/14 12:30 UTC NOAA

TAF KCAR 141127Z 1412/1512 32007KT P6SM SKC
FM141500 33010G20KT P6SM SCT070
FM142200 34007KT P6SM SKC
FM150100 02004KT P6SM SKC

Example: see airport list